sensor_id;sensor_type;location;lat;lon;timestamp;P1;durP1;ratioP1;P2;durP2;ratioP2
11646;SDS011;5880;52.342;9.662;2024-03-08T00:01:12;16.70;;;11.33;;
11646;SDS011;5880;52.342;9.662;2024-03-08T00:03:37;17.30;;;11.27;;
11646;SDS011;5880;52.342;9.662;2024-03-08T00:06:05;16.27;;;11.03;;
11646;SDS011;5880;52.342;9.662;2024-03-08T00:08:31;16.93;;;11.47;;
11646;SDS011;5880;52.342;9.662;2024-03-08T00:10:56;17.93;;;11.07;;
11646;SDS011;5880;52.342;9.662;2024-03-08T00:13:22;16.97;;;10.37;;
11646;SDS011;5880;52.342;9.662;2024-03-08T00:15:50;17.07;;;11.43;;
11646;SDS011;5880;52.342;9.662;2024-03-08T00:18:16;15.93;;;11.47;;
11646;SDS011;5880;52.342;9.662;2024-03-08T00:20:42;18.03;;;12.27;;
11646;SDS011;5880;52.342;9.662;2024-03-08T00:23:08;14.60;;;10.23;;
11646;SDS011;5880;52.342;9.662;2024-03-08T00:25:35;17.67;;;11.27;;
11646;SDS011;5880;52.342;9.662;2024-03-08T00:28:01;17.47;;;11.40;;
11646;SDS011;5880;52.342;9.662;2024-03-08T00:30:29;18.53;;;11.53;;
11646;SDS011;5880;52.342;9.662;2024-03-08T00:32:56;13.57;;;9.90;;
11646;SDS011;5880;52.342;9.662;2024-03-08T00:35:21;16.40;;;11.27;;
11646;SDS011;5880;52.342;9.662;2024-03-08T00:37:47;18.63;;;11.83;;
11646;SDS011;5880;52.342;9.662;2024-03-08T00:40:14;15.33;;;10.83;;
11646;SDS011;5880;52.342;9.662;2024-03-08T00:42:40;17.17;;;11.90;;
11646;SDS011;5880;52.342;9.662;2024-03-08T00:45:06;16.27;;;11.33;;
11646;SDS011;5880;52.342;9.662;2024-03-08T00:47:33;16.60;;;10.80;;
11646;SDS011;5880;52.342;9.662;2024-03-08T00:49:58;18.90;;;11.43;;
11646;SDS011;5880;52.342;9.662;2024-03-08T00:52:24;18.47;;;11.37;;
11646;SDS011;5880;52.342;9.662;2024-03-08T00:54:50;14.50;;;10.67;;
11646;SDS011;5880;52.342;9.662;2024-03-08T00:57:15;16.47;;;10.47;;
11646;SDS011;5880;52.342;9.662;2024-03-08T00:59:41;15.70;;;10.50;;
11646;SDS011;5880;52.342;9.662;2024-03-08T01:02:07;16.40;;;10.70;;
11646;SDS011;5880;52.342;9.662;2024-03-08T01:04:35;16.30;;;11.27;;
11646;SDS011;5880;52.342;9.662;2024-03-08T01:07:01;16.43;;;9.87;;
11646;SDS011;5880;52.342;9.662;2024-03-08T01:09:27;15.97;;;11.27;;
11646;SDS011;5880;52.342;9.662;2024-03-08T01:11:53;17.30;;;10.97;;
11646;SDS011;5880;52.342;9.662;2024-03-08T01:14:20;17.70;;;11.73;;
11646;SDS011;5880;52.342;9.662;2024-03-08T01:16:50;19.20;;;12.57;;
11646;SDS011;5880;52.342;9.662;2024-03-08T01:19:16;19.40;;;12.27;;
11646;SDS011;5880;52.342;9.662;2024-03-08T01:21:42;17.87;;;11.90;;
11646;SDS011;5880;52.342;9.662;2024-03-08T01:24:08;17.23;;;11.90;;
11646;SDS011;5880;52.342;9.662;2024-03-08T01:26:34;17.23;;;11.93;;
11646;SDS011;5880;52.342;9.662;2024-03-08T01:29:00;19.70;;;13.07;;
11646;SDS011;5880;52.342;9.662;2024-03-08T01:31:28;17.63;;;12.27;;
11646;SDS011;5880;52.342;9.662;2024-03-08T01:34:00;19.37;;;12.97;;
11646;SDS011;5880;52.342;9.662;2024-03-08T01:36:26;20.73;;;13.13;;
11646;SDS011;5880;52.342;9.662;2024-03-08T01:38:52;22.23;;;13.80;;
11646;SDS011;5880;52.342;9.662;2024-03-08T01:41:17;20.33;;;13.33;;
11646;SDS011;5880;52.342;9.662;2024-03-08T01:43:44;19.23;;;13.17;;
11646;SDS011;5880;52.342;9.662;2024-03-08T01:46:14;21.57;;;14.20;;
11646;SDS011;5880;52.342;9.662;2024-03-08T01:48:44;23.47;;;14.40;;
11646;SDS011;5880;52.342;9.662;2024-03-08T01:51:10;20.80;;;13.20;;
11646;SDS011;5880;52.342;9.662;2024-03-08T01:53:37;23.27;;;14.77;;
11646;SDS011;5880;52.342;9.662;2024-03-08T01:56:03;21.37;;;13.67;;
11646;SDS011;5880;52.342;9.662;2024-03-08T01:58:31;22.47;;;14.00;;
11646;SDS011;5880;52.342;9.662;2024-03-08T02:00:58;26.00;;;16.03;;
11646;SDS011;5880;52.342;9.662;2024-03-08T02:03:25;24.70;;;15.73;;
11646;SDS011;5880;52.342;9.662;2024-03-08T02:05:50;25.43;;;15.13;;
11646;SDS011;5880;52.342;9.662;2024-03-08T02:08:16;23.53;;;14.70;;
11646;SDS011;5880;52.342;9.662;2024-03-08T02:10:44;23.93;;;14.20;;
11646;SDS011;5880;52.342;9.662;2024-03-08T02:13:10;21.50;;;14.37;;
11646;SDS011;5880;52.342;9.662;2024-03-08T02:15:55;24.97;;;15.30;;
11646;SDS011;5880;52.342;9.662;2024-03-08T02:18:26;23.53;;;15.10;;
11646;SDS011;5880;52.342;9.662;2024-03-08T02:20:54;22.63;;;14.47;;
11646;SDS011;5880;52.342;9.662;2024-03-08T02:23:22;22.60;;;14.57;;
11646;SDS011;5880;52.342;9.662;2024-03-08T02:25:50;26.33;;;15.03;;
11646;SDS011;5880;52.342;9.662;2024-03-08T02:28:16;25.83;;;16.23;;
11646;SDS011;5880;52.342;9.662;2024-03-08T02:30:45;23.27;;;14.97;;
11646;SDS011;5880;52.342;9.662;2024-03-08T02:33:15;24.60;;;15.67;;
11646;SDS011;5880;52.342;9.662;2024-03-08T02:35:45;21.17;;;14.27;;
11646;SDS011;5880;52.342;9.662;2024-03-08T02:38:12;21.27;;;13.87;;
11646;SDS011;5880;52.342;9.662;2024-03-08T02:40:43;22.37;;;14.00;;
11646;SDS011;5880;52.342;9.662;2024-03-08T02:43:11;21.93;;;13.33;;
11646;SDS011;5880;52.342;9.662;2024-03-08T02:45:38;22.63;;;14.63;;
11646;SDS011;5880;52.342;9.662;2024-03-08T02:48:04;22.43;;;14.57;;
11646;SDS011;5880;52.342;9.662;2024-03-08T02:50:33;22.23;;;14.40;;
11646;SDS011;5880;52.342;9.662;2024-03-08T02:53:00;22.73;;;14.83;;
11646;SDS011;5880;52.342;9.662;2024-03-08T02:55:26;20.10;;;14.10;;
11646;SDS011;5880;52.342;9.662;2024-03-08T02:57:52;21.83;;;14.40;;
11646;SDS011;5880;52.342;9.662;2024-03-08T03:00:19;24.70;;;14.47;;
11646;SDS011;5880;52.342;9.662;2024-03-08T03:02:47;21.63;;;14.37;;
11646;SDS011;5880;52.342;9.662;2024-03-08T03:05:19;22.77;;;13.67;;
11646;SDS011;5880;52.342;9.662;2024-03-08T03:07:45;22.00;;;13.43;;
11646;SDS011;5880;52.342;9.662;2024-03-08T03:10:11;18.13;;;12.77;;
11646;SDS011;5880;52.342;9.662;2024-03-08T03:12:43;21.53;;;13.77;;
11646;SDS011;5880;52.342;9.662;2024-03-08T03:15:11;20.87;;;13.57;;
11646;SDS011;5880;52.342;9.662;2024-03-08T03:17:38;21.33;;;12.97;;
11646;SDS011;5880;52.342;9.662;2024-03-08T03:20:07;22.10;;;12.73;;
11646;SDS011;5880;52.342;9.662;2024-03-08T03:22:38;17.10;;;11.53;;
11646;SDS011;5880;52.342;9.662;2024-03-08T03:25:04;19.03;;;11.97;;
11646;SDS011;5880;52.342;9.662;2024-03-08T03:27:31;19.73;;;12.20;;
11646;SDS011;5880;52.342;9.662;2024-03-08T03:29:57;17.33;;;12.03;;
11646;SDS011;5880;52.342;9.662;2024-03-08T03:32:31;18.03;;;11.23;;
11646;SDS011;5880;52.342;9.662;2024-03-08T03:34:58;17.23;;;12.00;;
11646;SDS011;5880;52.342;9.662;2024-03-08T03:37:23;19.83;;;12.50;;
11646;SDS011;5880;52.342;9.662;2024-03-08T03:39:49;18.40;;;12.33;;
11646;SDS011;5880;52.342;9.662;2024-03-08T03:42:17;19.27;;;12.83;;
11646;SDS011;5880;52.342;9.662;2024-03-08T03:44:45;19.00;;;12.63;;
11646;SDS011;5880;52.342;9.662;2024-03-08T03:47:12;20.53;;;13.20;;
11646;SDS011;5880;52.342;9.662;2024-03-08T03:49:41;21.77;;;13.03;;
11646;SDS011;5880;52.342;9.662;2024-03-08T03:52:07;20.60;;;13.50;;
11646;SDS011;5880;52.342;9.662;2024-03-08T03:54:34;23.70;;;14.13;;
11646;SDS011;5880;52.342;9.662;2024-03-08T03:56:59;21.07;;;13.63;;
11646;SDS011;5880;52.342;9.662;2024-03-08T03:59:26;20.37;;;13.60;;
11646;SDS011;5880;52.342;9.662;2024-03-08T04:01:52;23.93;;;13.93;;
11646;SDS011;5880;52.342;9.662;2024-03-08T04:04:19;21.00;;;13.43;;
11646;SDS011;5880;52.342;9.662;2024-03-08T04:06:45;23.03;;;14.17;;
11646;SDS011;5880;52.342;9.662;2024-03-08T04:09:11;25.40;;;15.63;;
11646;SDS011;5880;52.342;9.662;2024-03-08T04:11:37;24.50;;;15.00;;
11646;SDS011;5880;52.342;9.662;2024-03-08T04:14:03;25.40;;;14.00;;
11646;SDS011;5880;52.342;9.662;2024-03-08T04:16:30;21.90;;;13.80;;
11646;SDS011;5880;52.342;9.662;2024-03-08T04:18:57;21.87;;;14.40;;
11646;SDS011;5880;52.342;9.662;2024-03-08T04:21:23;22.50;;;14.53;;
11646;SDS011;5880;52.342;9.662;2024-03-08T04:23:49;23.77;;;14.60;;
11646;SDS011;5880;52.342;9.662;2024-03-08T04:26:14;20.87;;;13.80;;
11646;SDS011;5880;52.342;9.662;2024-03-08T04:28:40;20.83;;;13.63;;
11646;SDS011;5880;52.342;9.662;2024-03-08T04:31:06;22.83;;;13.90;;
11646;SDS011;5880;52.342;9.662;2024-03-08T04:33:32;21.87;;;13.93;;
11646;SDS011;5880;52.342;9.662;2024-03-08T04:36:00;23.27;;;13.83;;
11646;SDS011;5880;52.342;9.662;2024-03-08T04:38:29;21.33;;;13.60;;
11646;SDS011;5880;52.342;9.662;2024-03-08T04:40:55;21.67;;;13.63;;
11646;SDS011;5880;52.342;9.662;2024-03-08T04:43:22;22.03;;;15.33;;
11646;SDS011;5880;52.342;9.662;2024-03-08T04:45:51;22.47;;;13.67;;
11646;SDS011;5880;52.342;9.662;2024-03-08T04:48:18;21.57;;;13.30;;
11646;SDS011;5880;52.342;9.662;2024-03-08T04:50:45;23.27;;;14.77;;
11646;SDS011;5880;52.342;9.662;2024-03-08T04:53:11;24.77;;;14.43;;
11646;SDS011;5880;52.342;9.662;2024-03-08T04:55:37;21.13;;;13.43;;
11646;SDS011;5880;52.342;9.662;2024-03-08T04:58:03;20.57;;;13.27;;
11646;SDS011;5880;52.342;9.662;2024-03-08T05:00:32;22.80;;;13.63;;
11646;SDS011;5880;52.342;9.662;2024-03-08T05:02:58;22.77;;;14.07;;
11646;SDS011;5880;52.342;9.662;2024-03-08T05:05:24;22.10;;;13.60;;
11646;SDS011;5880;52.342;9.662;2024-03-08T05:07:51;22.87;;;14.40;;
11646;SDS011;5880;52.342;9.662;2024-03-08T05:10:16;25.23;;;15.20;;
11646;SDS011;5880;52.342;9.662;2024-03-08T05:12:42;21.67;;;14.40;;
11646;SDS011;5880;52.342;9.662;2024-03-08T05:15:08;22.50;;;14.80;;
11646;SDS011;5880;52.342;9.662;2024-03-08T05:17:34;20.93;;;13.63;;
11646;SDS011;5880;52.342;9.662;2024-03-08T05:20:00;23.97;;;14.70;;
11646;SDS011;5880;52.342;9.662;2024-03-08T05:22:26;23.33;;;14.83;;
11646;SDS011;5880;52.342;9.662;2024-03-08T05:24:52;23.47;;;15.10;;
11646;SDS011;5880;52.342;9.662;2024-03-08T05:27:18;22.77;;;14.77;;
11646;SDS011;5880;52.342;9.662;2024-03-08T05:29:44;23.80;;;14.50;;
11646;SDS011;5880;52.342;9.662;2024-03-08T05:32:11;22.07;;;14.37;;
11646;SDS011;5880;52.342;9.662;2024-03-08T05:34:37;23.10;;;14.20;;
11646;SDS011;5880;52.342;9.662;2024-03-08T05:37:02;23.10;;;14.43;;
11646;SDS011;5880;52.342;9.662;2024-03-08T05:39:28;22.73;;;15.20;;
11646;SDS011;5880;52.342;9.662;2024-03-08T05:41:55;21.47;;;14.17;;
11646;SDS011;5880;52.342;9.662;2024-03-08T05:44:21;22.37;;;14.03;;
11646;SDS011;5880;52.342;9.662;2024-03-08T05:46:47;23.70;;;13.80;;
11646;SDS011;5880;52.342;9.662;2024-03-08T05:49:12;22.57;;;14.77;;
11646;SDS011;5880;52.342;9.662;2024-03-08T05:51:38;21.03;;;14.00;;
11646;SDS011;5880;52.342;9.662;2024-03-08T05:54:06;21.57;;;14.20;;
11646;SDS011;5880;52.342;9.662;2024-03-08T05:56:37;21.87;;;14.33;;
11646;SDS011;5880;52.342;9.662;2024-03-08T05:59:07;21.00;;;12.97;;
11646;SDS011;5880;52.342;9.662;2024-03-08T06:01:33;22.57;;;14.10;;
11646;SDS011;5880;52.342;9.662;2024-03-08T06:04:01;19.80;;;13.40;;
11646;SDS011;5880;52.342;9.662;2024-03-08T06:06:28;23.20;;;14.17;;
11646;SDS011;5880;52.342;9.662;2024-03-08T06:08:54;21.53;;;14.27;;
11646;SDS011;5880;52.342;9.662;2024-03-08T06:11:24;22.70;;;14.90;;
11646;SDS011;5880;52.342;9.662;2024-03-08T06:13:55;20.17;;;13.73;;
11646;SDS011;5880;52.342;9.662;2024-03-08T06:16:24;21.67;;;14.07;;
11646;SDS011;5880;52.342;9.662;2024-03-08T06:18:54;22.30;;;14.77;;
11646;SDS011;5880;52.342;9.662;2024-03-08T06:21:22;25.73;;;16.53;;
11646;SDS011;5880;52.342;9.662;2024-03-08T06:23:50;23.93;;;14.97;;
11646;SDS011;5880;52.342;9.662;2024-03-08T06:26:19;22.83;;;14.63;;
11646;SDS011;5880;52.342;9.662;2024-03-08T06:28:46;26.13;;;16.37;;
11646;SDS011;5880;52.342;9.662;2024-03-08T06:31:13;25.33;;;15.27;;
11646;SDS011;5880;52.342;9.662;2024-03-08T06:33:39;29.77;;;17.60;;
11646;SDS011;5880;52.342;9.662;2024-03-08T06:36:05;28.37;;;18.43;;
11646;SDS011;5880;52.342;9.662;2024-03-08T06:38:32;25.13;;;16.43;;
11646;SDS011;5880;52.342;9.662;2024-03-08T06:40:57;26.10;;;16.97;;
11646;SDS011;5880;52.342;9.662;2024-03-08T06:43:23;24.93;;;17.10;;
11646;SDS011;5880;52.342;9.662;2024-03-08T06:45:55;31.53;;;19.03;;
11646;SDS011;5880;52.342;9.662;2024-03-08T06:48:20;24.90;;;17.10;;
11646;SDS011;5880;52.342;9.662;2024-03-08T06:50:46;26.63;;;17.13;;
11646;SDS011;5880;52.342;9.662;2024-03-08T06:53:13;26.27;;;17.33;;
11646;SDS011;5880;52.342;9.662;2024-03-08T06:55:39;23.27;;;15.67;;
11646;SDS011;5880;52.342;9.662;2024-03-08T06:58:05;25.53;;;17.23;;
11646;SDS011;5880;52.342;9.662;2024-03-08T07:00:35;26.70;;;17.50;;
11646;SDS011;5880;52.342;9.662;2024-03-08T07:03:01;27.40;;;17.57;;
11646;SDS011;5880;52.342;9.662;2024-03-08T07:05:27;24.37;;;17.10;;
11646;SDS011;5880;52.342;9.662;2024-03-08T07:07:54;23.47;;;15.93;;
11646;SDS011;5880;52.342;9.662;2024-03-08T07:10:21;21.27;;;15.37;;
11646;SDS011;5880;52.342;9.662;2024-03-08T07:12:50;22.37;;;15.40;;
11646;SDS011;5880;52.342;9.662;2024-03-08T07:15:18;22.60;;;16.40;;
11646;SDS011;5880;52.342;9.662;2024-03-08T07:17:44;24.00;;;17.10;;
11646;SDS011;5880;52.342;9.662;2024-03-08T07:20:11;26.00;;;18.40;;
11646;SDS011;5880;52.342;9.662;2024-03-08T07:22:40;23.70;;;17.13;;
11646;SDS011;5880;52.342;9.662;2024-03-08T07:25:06;20.60;;;16.03;;
11646;SDS011;5880;52.342;9.662;2024-03-08T07:27:32;26.33;;;18.07;;
11646;SDS011;5880;52.342;9.662;2024-03-08T07:29:59;23.67;;;17.37;;
11646;SDS011;5880;52.342;9.662;2024-03-08T07:32:25;24.87;;;18.47;;
11646;SDS011;5880;52.342;9.662;2024-03-08T07:34:54;22.93;;;18.00;;
11646;SDS011;5880;52.342;9.662;2024-03-08T07:37:20;23.23;;;18.20;;
11646;SDS011;5880;52.342;9.662;2024-03-08T07:39:46;22.47;;;17.70;;
11646;SDS011;5880;52.342;9.662;2024-03-08T07:42:12;28.23;;;19.27;;
11646;SDS011;5880;52.342;9.662;2024-03-08T07:44:37;25.07;;;19.00;;
11646;SDS011;5880;52.342;9.662;2024-03-08T07:47:04;25.67;;;18.43;;
11646;SDS011;5880;52.342;9.662;2024-03-08T07:49:30;24.13;;;18.20;;
11646;SDS011;5880;52.342;9.662;2024-03-08T07:51:56;24.33;;;18.50;;
11646;SDS011;5880;52.342;9.662;2024-03-08T07:54:23;24.73;;;18.70;;
11646;SDS011;5880;52.342;9.662;2024-03-08T07:56:51;24.20;;;18.63;;
11646;SDS011;5880;52.342;9.662;2024-03-08T07:59:17;27.93;;;19.67;;
11646;SDS011;5880;52.342;9.662;2024-03-08T08:01:43;30.50;;;20.27;;
11646;SDS011;5880;52.342;9.662;2024-03-08T08:04:09;25.87;;;19.90;;
11646;SDS011;5880;52.342;9.662;2024-03-08T08:06:37;26.53;;;18.83;;
11646;SDS011;5880;52.342;9.662;2024-03-08T08:09:06;26.77;;;19.30;;
11646;SDS011;5880;52.342;9.662;2024-03-08T08:11:39;25.17;;;18.07;;
11646;SDS011;5880;52.342;9.662;2024-03-08T08:14:08;27.60;;;18.90;;
11646;SDS011;5880;52.342;9.662;2024-03-08T08:16:37;29.57;;;19.93;;
11646;SDS011;5880;52.342;9.662;2024-03-08T08:19:03;30.27;;;20.53;;
11646;SDS011;5880;52.342;9.662;2024-03-08T08:21:35;25.87;;;18.23;;
11646;SDS011;5880;52.342;9.662;2024-03-08T08:24:04;27.03;;;18.70;;
11646;SDS011;5880;52.342;9.662;2024-03-08T08:26:31;27.73;;;18.77;;
11646;SDS011;5880;52.342;9.662;2024-03-08T08:28:58;26.17;;;18.57;;
11646;SDS011;5880;52.342;9.662;2024-03-08T08:31:24;24.87;;;17.73;;
11646;SDS011;5880;52.342;9.662;2024-03-08T08:33:51;25.73;;;17.70;;
11646;SDS011;5880;52.342;9.662;2024-03-08T08:36:23;28.80;;;19.27;;
11646;SDS011;5880;52.342;9.662;2024-03-08T08:38:51;28.53;;;19.67;;
11646;SDS011;5880;52.342;9.662;2024-03-08T08:41:20;28.57;;;20.00;;
11646;SDS011;5880;52.342;9.662;2024-03-08T08:43:46;32.33;;;21.13;;
11646;SDS011;5880;52.342;9.662;2024-03-08T08:46:16;29.77;;;20.57;;
11646;SDS011;5880;52.342;9.662;2024-03-08T08:48:42;29.33;;;19.83;;
11646;SDS011;5880;52.342;9.662;2024-03-08T08:51:10;31.20;;;20.13;;
11646;SDS011;5880;52.342;9.662;2024-03-08T08:53:40;29.47;;;20.57;;
11646;SDS011;5880;52.342;9.662;2024-03-08T08:56:12;26.50;;;19.33;;
11646;SDS011;5880;52.342;9.662;2024-03-08T08:58:39;28.80;;;19.87;;
11646;SDS011;5880;52.342;9.662;2024-03-08T09:01:08;30.80;;;20.27;;
11646;SDS011;5880;52.342;9.662;2024-03-08T09:03:37;31.70;;;21.57;;
11646;SDS011;5880;52.342;9.662;2024-03-08T09:06:05;28.17;;;18.77;;
11646;SDS011;5880;52.342;9.662;2024-03-08T09:08:38;28.20;;;20.00;;
11646;SDS011;5880;52.342;9.662;2024-03-08T09:11:04;29.60;;;19.77;;
11646;SDS011;5880;52.342;9.662;2024-03-08T09:13:30;30.00;;;20.80;;
11646;SDS011;5880;52.342;9.662;2024-03-08T09:15:58;30.90;;;21.47;;
11646;SDS011;5880;52.342;9.662;2024-03-08T09:18:23;28.70;;;20.63;;
11646;SDS011;5880;52.342;9.662;2024-03-08T09:20:49;27.17;;;19.87;;
11646;SDS011;5880;52.342;9.662;2024-03-08T09:23:16;26.57;;;19.37;;
11646;SDS011;5880;52.342;9.662;2024-03-08T09:25:44;27.10;;;20.10;;
11646;SDS011;5880;52.342;9.662;2024-03-08T09:28:11;27.47;;;19.93;;
11646;SDS011;5880;52.342;9.662;2024-03-08T09:30:37;25.33;;;19.63;;
11646;SDS011;5880;52.342;9.662;2024-03-08T09:33:04;24.63;;;19.47;;
11646;SDS011;5880;52.342;9.662;2024-03-08T09:35:31;27.13;;;20.27;;
11646;SDS011;5880;52.342;9.662;2024-03-08T09:37:57;25.60;;;19.83;;
11646;SDS011;5880;52.342;9.662;2024-03-08T09:40:23;25.67;;;19.73;;
11646;SDS011;5880;52.342;9.662;2024-03-08T09:42:50;23.67;;;18.67;;
11646;SDS011;5880;52.342;9.662;2024-03-08T09:45:17;25.83;;;20.03;;
11646;SDS011;5880;52.342;9.662;2024-03-08T09:47:49;24.10;;;19.43;;
11646;SDS011;5880;52.342;9.662;2024-03-08T09:50:15;26.30;;;19.50;;
11646;SDS011;5880;52.342;9.662;2024-03-08T09:52:43;22.30;;;18.33;;
11646;SDS011;5880;52.342;9.662;2024-03-08T09:55:14;24.37;;;19.13;;
11646;SDS011;5880;52.342;9.662;2024-03-08T09:57:43;23.30;;;18.50;;
11646;SDS011;5880;52.342;9.662;2024-03-08T10:00:32;23.42;;;18.73;;
11646;SDS011;5880;52.342;9.662;2024-03-08T10:03:01;23.65;;;19.05;;
11646;SDS011;5880;52.342;9.662;2024-03-08T10:05:28;22.17;;;18.15;;
11646;SDS011;5880;52.342;9.662;2024-03-08T10:07:57;25.63;;;18.52;;
11646;SDS011;5880;52.342;9.662;2024-03-08T10:10:23;23.80;;;18.50;;
11646;SDS011;5880;52.342;9.662;2024-03-08T10:12:49;23.67;;;18.15;;
11646;SDS011;5880;52.342;9.662;2024-03-08T10:15:16;21.73;;;17.70;;
11646;SDS011;5880;52.342;9.662;2024-03-08T10:17:42;21.70;;;17.92;;
11646;SDS011;5880;52.342;9.662;2024-03-08T10:20:14;21.58;;;17.52;;
11646;SDS011;5880;52.342;9.662;2024-03-08T10:22:44;22.33;;;17.27;;
11646;SDS011;5880;52.342;9.662;2024-03-08T10:25:13;20.50;;;17.00;;
11646;SDS011;5880;52.342;9.662;2024-03-08T10:27:39;20.95;;;16.92;;
11646;SDS011;5880;52.342;9.662;2024-03-08T10:30:06;23.85;;;18.00;;
11646;SDS011;5880;52.342;9.662;2024-03-08T10:32:41;21.80;;;17.45;;
11646;SDS011;5880;52.342;9.662;2024-03-08T10:35:07;21.23;;;17.45;;
11646;SDS011;5880;52.342;9.662;2024-03-08T10:37:33;23.10;;;17.27;;
11646;SDS011;5880;52.342;9.662;2024-03-08T10:40:12;23.87;;;18.50;;
11646;SDS011;5880;52.342;9.662;2024-03-08T10:51:02;25.90;;;19.60;;
11646;SDS011;5880;52.342;9.662;2024-03-08T10:53:28;22.40;;;17.53;;
11646;SDS011;5880;52.342;9.662;2024-03-08T10:55:56;23.23;;;17.03;;
11646;SDS011;5880;52.342;9.662;2024-03-08T10:58:23;24.30;;;18.60;;
11646;SDS011;5880;52.342;9.662;2024-03-08T11:00:52;26.70;;;19.43;;
11646;SDS011;5880;52.342;9.662;2024-03-08T11:06:05;24.00;;;17.47;;
11646;SDS011;5880;52.342;9.662;2024-03-08T11:08:41;26.53;;;19.00;;
11646;SDS011;5880;52.342;9.662;2024-03-08T11:11:22;24.73;;;18.30;;
11646;SDS011;5880;52.342;9.662;2024-03-08T11:13:55;27.63;;;21.20;;
11646;SDS011;5880;52.342;9.662;2024-03-08T11:18:53;26.27;;;18.53;;
11646;SDS011;5880;52.342;9.662;2024-03-08T11:21:19;25.67;;;17.97;;
11646;SDS011;5880;52.342;9.662;2024-03-08T11:24:01;23.70;;;17.73;;
11646;SDS011;5880;52.342;9.662;2024-03-08T11:26:36;25.63;;;18.80;;
11646;SDS011;5880;52.342;9.662;2024-03-08T11:32:05;29.80;;;20.40;;
11646;SDS011;5880;52.342;9.662;2024-03-08T11:34:45;25.67;;;19.10;;
11646;SDS011;5880;52.342;9.662;2024-03-08T11:37:15;23.63;;;17.67;;
11646;SDS011;5880;52.342;9.662;2024-03-08T11:39:53;24.63;;;18.30;;
11646;SDS011;5880;52.342;9.662;2024-03-08T11:42:29;25.40;;;18.53;;
11646;SDS011;5880;52.342;9.662;2024-03-08T11:44:55;24.70;;;17.73;;
11646;SDS011;5880;52.342;9.662;2024-03-08T11:47:21;24.50;;;17.53;;
11646;SDS011;5880;52.342;9.662;2024-03-08T11:49:47;23.40;;;17.40;;
11646;SDS011;5880;52.342;9.662;2024-03-08T11:52:16;25.00;;;17.90;;
11646;SDS011;5880;52.342;9.662;2024-03-08T11:54:53;23.20;;;16.07;;
11646;SDS011;5880;52.342;9.662;2024-03-08T11:57:22;26.07;;;18.17;;
11646;SDS011;5880;52.342;9.662;2024-03-08T11:59:52;24.63;;;17.90;;
11646;SDS011;5880;52.342;9.662;2024-03-08T12:02:18;22.50;;;17.47;;
11646;SDS011;5880;52.342;9.662;2024-03-08T12:04:45;22.77;;;16.77;;
11646;SDS011;5880;52.342;9.662;2024-03-08T12:07:13;24.00;;;16.93;;
11646;SDS011;5880;52.342;9.662;2024-03-08T12:09:43;24.20;;;16.90;;
11646;SDS011;5880;52.342;9.662;2024-03-08T12:12:29;21.90;;;16.13;;
11646;SDS011;5880;52.342;9.662;2024-03-08T12:14:54;22.73;;;16.13;;
11646;SDS011;5880;52.342;9.662;2024-03-08T12:17:22;19.53;;;15.07;;
11646;SDS011;5880;52.342;9.662;2024-03-08T12:19:49;21.33;;;15.77;;
11646;SDS011;5880;52.342;9.662;2024-03-08T12:22:14;20.67;;;16.10;;
11646;SDS011;5880;52.342;9.662;2024-03-08T12:24:40;21.33;;;15.97;;
11646;SDS011;5880;52.342;9.662;2024-03-08T12:27:25;23.40;;;16.93;;
11646;SDS011;5880;52.342;9.662;2024-03-08T12:29:53;22.33;;;15.87;;
11646;SDS011;5880;52.342;9.662;2024-03-08T12:32:20;20.67;;;15.67;;
11646;SDS011;5880;52.342;9.662;2024-03-08T12:34:51;20.27;;;16.40;;
11646;SDS011;5880;52.342;9.662;2024-03-08T12:37:18;22.07;;;15.83;;
11646;SDS011;5880;52.342;9.662;2024-03-08T12:39:44;25.73;;;17.27;;
11646;SDS011;5880;52.342;9.662;2024-03-08T12:42:09;23.70;;;16.93;;
11646;SDS011;5880;52.342;9.662;2024-03-08T12:44:36;21.30;;;15.97;;
11646;SDS011;5880;52.342;9.662;2024-03-08T12:47:07;21.83;;;16.27;;
11646;SDS011;5880;52.342;9.662;2024-03-08T12:49:33;22.53;;;16.20;;
11646;SDS011;5880;52.342;9.662;2024-03-08T12:51:59;22.97;;;16.30;;
11646;SDS011;5880;52.342;9.662;2024-03-08T12:54:25;22.17;;;16.53;;
11646;SDS011;5880;52.342;9.662;2024-03-08T12:56:51;20.00;;;15.43;;
11646;SDS011;5880;52.342;9.662;2024-03-08T12:59:19;21.93;;;16.80;;
11646;SDS011;5880;52.342;9.662;2024-03-08T13:01:46;20.73;;;15.93;;
11646;SDS011;5880;52.342;9.662;2024-03-08T13:04:12;21.87;;;15.13;;
11646;SDS011;5880;52.342;9.662;2024-03-08T13:06:38;20.93;;;15.23;;
11646;SDS011;5880;52.342;9.662;2024-03-08T13:09:03;19.83;;;14.90;;
11646;SDS011;5880;52.342;9.662;2024-03-08T13:11:30;21.30;;;15.10;;
11646;SDS011;5880;52.342;9.662;2024-03-08T13:14:01;20.43;;;15.40;;
11646;SDS011;5880;52.342;9.662;2024-03-08T13:16:30;23.43;;;16.17;;
11646;SDS011;5880;52.342;9.662;2024-03-08T13:18:55;20.93;;;15.10;;
11646;SDS011;5880;52.342;9.662;2024-03-08T13:21:22;21.73;;;15.87;;
11646;SDS011;5880;52.342;9.662;2024-03-08T13:23:49;21.03;;;15.93;;
11646;SDS011;5880;52.342;9.662;2024-03-08T13:26:15;21.47;;;15.93;;
11646;SDS011;5880;52.342;9.662;2024-03-08T13:28:42;21.90;;;16.60;;
11646;SDS011;5880;52.342;9.662;2024-03-08T13:31:08;21.40;;;16.57;;
11646;SDS011;5880;52.342;9.662;2024-03-08T13:33:37;24.07;;;16.47;;
11646;SDS011;5880;52.342;9.662;2024-03-08T13:36:07;24.07;;;17.20;;
11646;SDS011;5880;52.342;9.662;2024-03-08T13:38:47;22.60;;;16.73;;
11646;SDS011;5880;52.342;9.662;2024-03-08T13:41:14;22.03;;;17.27;;
11646;SDS011;5880;52.342;9.662;2024-03-08T13:43:45;23.83;;;17.20;;
11646;SDS011;5880;52.342;9.662;2024-03-08T13:46:15;21.33;;;16.47;;
11646;SDS011;5880;52.342;9.662;2024-03-08T13:48:41;25.43;;;17.67;;
11646;SDS011;5880;52.342;9.662;2024-03-08T13:51:08;22.60;;;16.47;;
11646;SDS011;5880;52.342;9.662;2024-03-08T13:53:36;20.30;;;14.83;;
11646;SDS011;5880;52.342;9.662;2024-03-08T13:56:02;21.47;;;15.63;;
11646;SDS011;5880;52.342;9.662;2024-03-08T13:58:28;19.37;;;14.60;;
11646;SDS011;5880;52.342;9.662;2024-03-08T14:00:54;21.80;;;16.00;;
11646;SDS011;5880;52.342;9.662;2024-03-08T14:03:20;21.33;;;15.60;;
11646;SDS011;5880;52.342;9.662;2024-03-08T14:05:46;21.10;;;15.70;;
11646;SDS011;5880;52.342;9.662;2024-03-08T14:08:12;21.27;;;15.90;;
11646;SDS011;5880;52.342;9.662;2024-03-08T14:10:38;22.97;;;15.83;;
11646;SDS011;5880;52.342;9.662;2024-03-08T14:13:04;22.53;;;16.07;;
11646;SDS011;5880;52.342;9.662;2024-03-08T14:15:31;22.90;;;16.60;;
11646;SDS011;5880;52.342;9.662;2024-03-08T14:17:58;24.20;;;16.87;;
11646;SDS011;5880;52.342;9.662;2024-03-08T14:20:24;21.23;;;16.10;;
11646;SDS011;5880;52.342;9.662;2024-03-08T14:22:56;19.77;;;14.73;;
11646;SDS011;5880;52.342;9.662;2024-03-08T14:25:22;16.53;;;12.97;;
11646;SDS011;5880;52.342;9.662;2024-03-08T14:27:49;17.53;;;13.77;;
11646;SDS011;5880;52.342;9.662;2024-03-08T14:30:23;18.23;;;13.80;;
11646;SDS011;5880;52.342;9.662;2024-03-08T14:33:03;20.43;;;14.30;;
11646;SDS011;5880;52.342;9.662;2024-03-08T14:35:34;19.53;;;14.63;;
11646;SDS011;5880;52.342;9.662;2024-03-08T14:38:04;20.27;;;14.73;;
11646;SDS011;5880;52.342;9.662;2024-03-08T14:40:33;21.13;;;16.20;;
11646;SDS011;5880;52.342;9.662;2024-03-08T14:42:59;21.43;;;15.80;;
11646;SDS011;5880;52.342;9.662;2024-03-08T14:45:25;22.10;;;15.77;;
11646;SDS011;5880;52.342;9.662;2024-03-08T14:47:51;20.37;;;14.80;;
11646;SDS011;5880;52.342;9.662;2024-03-08T14:50:21;17.97;;;13.90;;
11646;SDS011;5880;52.342;9.662;2024-03-08T14:52:48;17.50;;;13.30;;
11646;SDS011;5880;52.342;9.662;2024-03-08T14:55:15;17.73;;;13.77;;